Terminal Aerodrome Forecast
Issued by NWS

Home | Current Version | Previous Version | Text Only | Print | Product List | Glossary On
Versions: 1 2 3 4 5 6 7 8 9 10 11 12 13 14 15 16 17 18 19 20 21 22 23 24
000
FTUS45 KGJT 192330
TAFASE
TAF
KASE 192330Z 2000/2024 32008KT P6SM SCT090
     FM200200 20005KT P6SM FEW150
     FM201400 00000KT P6SM SKC
     FM201900 34009KT P6SM SCT090=

USA.gov is the U.S. government's official web portal to all federal, state and local government web resources and services.